sensor_id;sensor_type;location;lat;lon;timestamp;P1;durP1;ratioP1;P2;durP2;ratioP2
32138;SDS011;18644;48.700;9.210;2024-01-30T00:00:08;9.02;;;4.35;;
32138;SDS011;18644;48.700;9.210;2024-01-30T00:02:35;7.05;;;3.75;;
32138;SDS011;18644;48.700;9.210;2024-01-30T00:05:02;9.07;;;4.20;;
32138;SDS011;18644;48.700;9.210;2024-01-30T00:07:30;8.52;;;4.20;;
32138;SDS011;18644;48.700;9.210;2024-01-30T00:09:57;4.20;;;3.58;;
32138;SDS011;18644;48.700;9.210;2024-01-30T00:12:28;7.38;;;4.15;;
32138;SDS011;18644;48.700;9.210;2024-01-30T00:14:59;5.10;;;3.25;;
32138;SDS011;18644;48.700;9.210;2024-01-30T00:17:34;5.10;;;3.25;;
32138;SDS011;18644;48.700;9.210;2024-01-30T00:20:02;5.55;;;3.53;;
32138;SDS011;18644;48.700;9.210;2024-01-30T00:22:30;6.78;;;3.55;;
32138;SDS011;18644;48.700;9.210;2024-01-30T00:24:58;5.53;;;3.00;;
32138;SDS011;18644;48.700;9.210;2024-01-30T00:27:27;6.07;;;3.80;;
32138;SDS011;18644;48.700;9.210;2024-01-30T00:29:54;5.25;;;3.70;;
32138;SDS011;18644;48.700;9.210;2024-01-30T00:32:21;4.70;;;3.33;;
32138;SDS011;18644;48.700;9.210;2024-01-30T00:34:48;5.25;;;3.33;;
32138;SDS011;18644;48.700;9.210;2024-01-30T00:37:16;4.22;;;3.13;;
32138;SDS011;18644;48.700;9.210;2024-01-30T00:39:43;5.93;;;2.97;;
32138;SDS011;18644;48.700;9.210;2024-01-30T00:42:10;5.15;;;3.03;;
32138;SDS011;18644;48.700;9.210;2024-01-30T00:44:38;4.88;;;2.72;;
32138;SDS011;18644;48.700;9.210;2024-01-30T00:47:05;5.65;;;3.20;;
32138;SDS011;18644;48.700;9.210;2024-01-30T00:49:32;4.60;;;3.20;;
32138;SDS011;18644;48.700;9.210;2024-01-30T00:51:59;4.05;;;3.13;;
32138;SDS011;18644;48.700;9.210;2024-01-30T00:54:26;6.32;;;3.28;;
32138;SDS011;18644;48.700;9.210;2024-01-30T00:56:53;4.97;;;3.05;;
32138;SDS011;18644;48.700;9.210;2024-01-30T00:59:20;4.65;;;3.47;;
32138;SDS011;18644;48.700;9.210;2024-01-30T01:01:49;5.70;;;3.33;;
32138;SDS011;18644;48.700;9.210;2024-01-30T01:04:16;4.40;;;3.20;;
32138;SDS011;18644;48.700;9.210;2024-01-30T01:06:43;7.22;;;3.75;;
32138;SDS011;18644;48.700;9.210;2024-01-30T01:09:10;5.90;;;3.50;;
32138;SDS011;18644;48.700;9.210;2024-01-30T01:11:37;5.60;;;4.35;;
32138;SDS011;18644;48.700;9.210;2024-01-30T01:14:05;5.57;;;3.70;;
32138;SDS011;18644;48.700;9.210;2024-01-30T01:16:31;5.97;;;3.60;;
32138;SDS011;18644;48.700;9.210;2024-01-30T01:19:00;6.13;;;3.80;;
32138;SDS011;18644;48.700;9.210;2024-01-30T01:21:28;6.03;;;4.05;;
32138;SDS011;18644;48.700;9.210;2024-01-30T01:23:55;5.13;;;3.35;;
32138;SDS011;18644;48.700;9.210;2024-01-30T01:26:22;7.43;;;4.00;;
32138;SDS011;18644;48.700;9.210;2024-01-30T01:28:49;5.45;;;3.80;;
32138;SDS011;18644;48.700;9.210;2024-01-30T01:31:15;5.15;;;3.38;;
32138;SDS011;18644;48.700;9.210;2024-01-30T01:33:42;4.93;;;3.08;;
32138;SDS011;18644;48.700;9.210;2024-01-30T01:36:11;6.03;;;3.28;;
32138;SDS011;18644;48.700;9.210;2024-01-30T01:38:39;6.22;;;3.30;;
32138;SDS011;18644;48.700;9.210;2024-01-30T01:41:06;5.43;;;3.80;;
32138;SDS011;18644;48.700;9.210;2024-01-30T01:43:33;4.32;;;3.25;;
32138;SDS011;18644;48.700;9.210;2024-01-30T01:46:00;4.38;;;3.45;;
32138;SDS011;18644;48.700;9.210;2024-01-30T01:48:27;4.40;;;2.85;;
32138;SDS011;18644;48.700;9.210;2024-01-30T01:50:54;3.10;;;2.53;;
32138;SDS011;18644;48.700;9.210;2024-01-30T01:53:22;4.82;;;3.63;;
32138;SDS011;18644;48.700;9.210;2024-01-30T01:55:49;4.95;;;3.58;;
32138;SDS011;18644;48.700;9.210;2024-01-30T01:58:18;4.32;;;3.15;;
32138;SDS011;18644;48.700;9.210;2024-01-30T02:00:48;5.88;;;3.30;;
32138;SDS011;18644;48.700;9.210;2024-01-30T02:03:17;4.63;;;3.42;;
32138;SDS011;18644;48.700;9.210;2024-01-30T02:05:46;4.18;;;3.38;;
32138;SDS011;18644;48.700;9.210;2024-01-30T02:08:13;5.88;;;3.70;;
32138;SDS011;18644;48.700;9.210;2024-01-30T02:10:42;7.15;;;3.92;;
32138;SDS011;18644;48.700;9.210;2024-01-30T02:13:09;6.13;;;3.80;;
32138;SDS011;18644;48.700;9.210;2024-01-30T02:15:36;5.93;;;3.47;;
32138;SDS011;18644;48.700;9.210;2024-01-30T02:18:03;4.53;;;3.30;;
32138;SDS011;18644;48.700;9.210;2024-01-30T02:20:30;4.57;;;3.47;;
32138;SDS011;18644;48.700;9.210;2024-01-30T02:23:02;5.63;;;2.95;;
32138;SDS011;18644;48.700;9.210;2024-01-30T02:25:30;5.22;;;3.10;;
32138;SDS011;18644;48.700;9.210;2024-01-30T02:27:59;5.35;;;3.47;;
32138;SDS011;18644;48.700;9.210;2024-01-30T02:30:26;5.28;;;3.70;;
32138;SDS011;18644;48.700;9.210;2024-01-30T02:32:52;4.97;;;3.65;;
32138;SDS011;18644;48.700;9.210;2024-01-30T02:35:19;5.22;;;3.65;;
32138;SDS011;18644;48.700;9.210;2024-01-30T02:37:46;5.13;;;3.70;;
32138;SDS011;18644;48.700;9.210;2024-01-30T02:40:14;6.88;;;3.83;;
32138;SDS011;18644;48.700;9.210;2024-01-30T02:42:41;7.85;;;4.35;;
32138;SDS011;18644;48.700;9.210;2024-01-30T02:45:09;6.53;;;4.10;;
32138;SDS011;18644;48.700;9.210;2024-01-30T02:47:38;6.82;;;3.50;;
32138;SDS011;18644;48.700;9.210;2024-01-30T02:50:05;6.70;;;4.38;;
32138;SDS011;18644;48.700;9.210;2024-01-30T02:52:33;6.30;;;3.85;;
32138;SDS011;18644;48.700;9.210;2024-01-30T02:55:00;6.80;;;4.20;;
32138;SDS011;18644;48.700;9.210;2024-01-30T02:57:29;5.88;;;3.90;;
32138;SDS011;18644;48.700;9.210;2024-01-30T02:59:56;5.90;;;3.80;;
32138;SDS011;18644;48.700;9.210;2024-01-30T03:02:22;5.70;;;3.53;;
32138;SDS011;18644;48.700;9.210;2024-01-30T03:04:49;5.05;;;3.72;;
32138;SDS011;18644;48.700;9.210;2024-01-30T03:07:16;4.72;;;3.38;;
32138;SDS011;18644;48.700;9.210;2024-01-30T03:09:43;4.82;;;3.40;;
32138;SDS011;18644;48.700;9.210;2024-01-30T03:12:10;6.45;;;3.42;;
32138;SDS011;18644;48.700;9.210;2024-01-30T03:14:39;4.53;;;3.00;;
32138;SDS011;18644;48.700;9.210;2024-01-30T03:17:06;6.35;;;3.58;;
32138;SDS011;18644;48.700;9.210;2024-01-30T03:19:32;5.35;;;3.70;;
32138;SDS011;18644;48.700;9.210;2024-01-30T03:22:00;4.85;;;3.22;;
32138;SDS011;18644;48.700;9.210;2024-01-30T03:24:26;3.90;;;3.03;;
32138;SDS011;18644;48.700;9.210;2024-01-30T03:26:53;6.32;;;3.60;;
32138;SDS011;18644;48.700;9.210;2024-01-30T03:29:20;6.28;;;3.95;;
32138;SDS011;18644;48.700;9.210;2024-01-30T03:31:48;6.07;;;3.15;;
32138;SDS011;18644;48.700;9.210;2024-01-30T03:34:15;5.95;;;3.75;;
32138;SDS011;18644;48.700;9.210;2024-01-30T03:36:42;7.47;;;3.95;;
32138;SDS011;18644;48.700;9.210;2024-01-30T03:39:09;5.70;;;3.60;;
32138;SDS011;18644;48.700;9.210;2024-01-30T03:41:36;5.28;;;3.97;;
32138;SDS011;18644;48.700;9.210;2024-01-30T03:44:03;5.07;;;3.45;;
32138;SDS011;18644;48.700;9.210;2024-01-30T03:46:30;5.10;;;4.10;;
32138;SDS011;18644;48.700;9.210;2024-01-30T03:48:58;5.65;;;3.97;;
32138;SDS011;18644;48.700;9.210;2024-01-30T03:51:25;8.45;;;3.80;;
32138;SDS011;18644;48.700;9.210;2024-01-30T03:53:52;6.65;;;3.55;;
32138;SDS011;18644;48.700;9.210;2024-01-30T03:56:19;8.65;;;4.15;;
32138;SDS011;18644;48.700;9.210;2024-01-30T03:58:46;5.45;;;3.90;;
32138;SDS011;18644;48.700;9.210;2024-01-30T04:01:13;5.85;;;4.03;;
32138;SDS011;18644;48.700;9.210;2024-01-30T04:03:40;5.78;;;3.67;;
32138;SDS011;18644;48.700;9.210;2024-01-30T04:06:10;9.13;;;4.22;;
32138;SDS011;18644;48.700;9.210;2024-01-30T04:08:37;6.78;;;4.20;;
32138;SDS011;18644;48.700;9.210;2024-01-30T04:11:04;5.55;;;3.83;;
32138;SDS011;18644;48.700;9.210;2024-01-30T04:13:31;10.02;;;4.20;;
32138;SDS011;18644;48.700;9.210;2024-01-30T04:15:58;6.25;;;3.88;;
32138;SDS011;18644;48.700;9.210;2024-01-30T04:18:26;5.78;;;3.95;;
32138;SDS011;18644;48.700;9.210;2024-01-30T04:20:54;5.20;;;3.88;;
32138;SDS011;18644;48.700;9.210;2024-01-30T04:23:22;4.68;;;3.65;;
32138;SDS011;18644;48.700;9.210;2024-01-30T04:25:49;6.10;;;3.95;;
32138;SDS011;18644;48.700;9.210;2024-01-30T04:28:16;4.93;;;3.88;;
32138;SDS011;18644;48.700;9.210;2024-01-30T04:30:43;4.90;;;3.65;;
32138;SDS011;18644;48.700;9.210;2024-01-30T04:33:10;5.75;;;4.15;;
32138;SDS011;18644;48.700;9.210;2024-01-30T04:35:37;7.75;;;4.05;;
32138;SDS011;18644;48.700;9.210;2024-01-30T04:38:04;5.20;;;3.53;;
32138;SDS011;18644;48.700;9.210;2024-01-30T04:40:32;6.32;;;4.30;;
32138;SDS011;18644;48.700;9.210;2024-01-30T04:42:59;4.93;;;3.80;;
32138;SDS011;18644;48.700;9.210;2024-01-30T04:45:26;5.72;;;3.90;;
32138;SDS011;18644;48.700;9.210;2024-01-30T04:47:53;5.65;;;3.95;;
32138;SDS011;18644;48.700;9.210;2024-01-30T04:50:20;7.68;;;4.57;;
32138;SDS011;18644;48.700;9.210;2024-01-30T04:52:47;6.00;;;4.20;;
32138;SDS011;18644;48.700;9.210;2024-01-30T04:55:14;6.68;;;4.57;;
32138;SDS011;18644;48.700;9.210;2024-01-30T04:57:42;6.78;;;4.05;;
32138;SDS011;18644;48.700;9.210;2024-01-30T05:00:09;5.15;;;4.13;;
32138;SDS011;18644;48.700;9.210;2024-01-30T05:02:37;4.93;;;3.65;;
32138;SDS011;18644;48.700;9.210;2024-01-30T05:05:04;6.90;;;4.13;;
32138;SDS011;18644;48.700;9.210;2024-01-30T05:07:32;5.05;;;4.00;;
32138;SDS011;18644;48.700;9.210;2024-01-30T05:10:00;5.28;;;3.90;;
32138;SDS011;18644;48.700;9.210;2024-01-30T05:12:27;5.45;;;4.07;;
32138;SDS011;18644;48.700;9.210;2024-01-30T05:14:55;5.40;;;3.47;;
32138;SDS011;18644;48.700;9.210;2024-01-30T05:17:22;5.35;;;3.83;;
32138;SDS011;18644;48.700;9.210;2024-01-30T05:19:48;7.03;;;3.80;;
32138;SDS011;18644;48.700;9.210;2024-01-30T05:22:15;5.90;;;3.90;;
32138;SDS011;18644;48.700;9.210;2024-01-30T05:24:43;4.72;;;3.78;;
32138;SDS011;18644;48.700;9.210;2024-01-30T05:27:10;4.65;;;3.75;;
32138;SDS011;18644;48.700;9.210;2024-01-30T05:29:38;6.10;;;4.20;;
32138;SDS011;18644;48.700;9.210;2024-01-30T05:32:06;5.97;;;3.78;;
32138;SDS011;18644;48.700;9.210;2024-01-30T05:34:33;5.85;;;4.18;;
32138;SDS011;18644;48.700;9.210;2024-01-30T05:37:01;6.45;;;4.05;;
32138;SDS011;18644;48.700;9.210;2024-01-30T05:39:29;5.38;;;3.92;;
32138;SDS011;18644;48.700;9.210;2024-01-30T05:41:58;8.60;;;4.57;;
32138;SDS011;18644;48.700;9.210;2024-01-30T05:44:25;4.78;;;3.60;;
32138;SDS011;18644;48.700;9.210;2024-01-30T05:46:52;5.55;;;3.80;;
32138;SDS011;18644;48.700;9.210;2024-01-30T05:49:20;4.68;;;3.35;;
32138;SDS011;18644;48.700;9.210;2024-01-30T05:51:47;5.95;;;3.83;;
32138;SDS011;18644;48.700;9.210;2024-01-30T05:54:14;4.50;;;3.65;;
32138;SDS011;18644;48.700;9.210;2024-01-30T05:56:42;5.55;;;3.78;;
32138;SDS011;18644;48.700;9.210;2024-01-30T05:59:09;5.38;;;3.40;;
32138;SDS011;18644;48.700;9.210;2024-01-30T06:01:36;4.07;;;3.33;;
32138;SDS011;18644;48.700;9.210;2024-01-30T06:04:03;6.30;;;3.60;;
32138;SDS011;18644;48.700;9.210;2024-01-30T06:06:31;5.45;;;3.88;;
32138;SDS011;18644;48.700;9.210;2024-01-30T06:08:58;5.10;;;3.78;;
32138;SDS011;18644;48.700;9.210;2024-01-30T06:11:25;7.40;;;3.75;;
32138;SDS011;18644;48.700;9.210;2024-01-30T06:13:52;5.32;;;3.35;;
32138;SDS011;18644;48.700;9.210;2024-01-30T06:16:19;5.35;;;4.00;;
32138;SDS011;18644;48.700;9.210;2024-01-30T06:18:46;5.05;;;4.03;;
32138;SDS011;18644;48.700;9.210;2024-01-30T06:21:13;5.20;;;3.78;;
32138;SDS011;18644;48.700;9.210;2024-01-30T06:23:42;6.15;;;4.53;;
32138;SDS011;18644;48.700;9.210;2024-01-30T06:26:08;7.00;;;4.05;;
32138;SDS011;18644;48.700;9.210;2024-01-30T06:28:35;7.40;;;4.18;;
32138;SDS011;18644;48.700;9.210;2024-01-30T06:31:02;4.95;;;3.72;;
32138;SDS011;18644;48.700;9.210;2024-01-30T06:33:29;7.32;;;4.40;;
32138;SDS011;18644;48.700;9.210;2024-01-30T06:35:56;5.00;;;3.88;;
32138;SDS011;18644;48.700;9.210;2024-01-30T06:38:23;6.25;;;4.20;;
32138;SDS011;18644;48.700;9.210;2024-01-30T06:40:51;6.95;;;4.22;;
32138;SDS011;18644;48.700;9.210;2024-01-30T06:43:18;6.93;;;4.20;;
32138;SDS011;18644;48.700;9.210;2024-01-30T06:45:45;6.55;;;4.22;;
32138;SDS011;18644;48.700;9.210;2024-01-30T06:48:12;7.43;;;4.40;;
32138;SDS011;18644;48.700;9.210;2024-01-30T06:50:39;6.80;;;4.45;;
32138;SDS011;18644;48.700;9.210;2024-01-30T06:53:06;6.10;;;4.03;;
32138;SDS011;18644;48.700;9.210;2024-01-30T06:55:33;7.88;;;4.30;;
32138;SDS011;18644;48.700;9.210;2024-01-30T06:58:02;5.38;;;3.35;;
32138;SDS011;18644;48.700;9.210;2024-01-30T07:00:29;8.57;;;4.05;;
32138;SDS011;18644;48.700;9.210;2024-01-30T07:02:56;5.82;;;4.00;;
32138;SDS011;18644;48.700;9.210;2024-01-30T07:05:23;4.90;;;3.72;;
32138;SDS011;18644;48.700;9.210;2024-01-30T07:07:50;4.35;;;3.45;;
32138;SDS011;18644;48.700;9.210;2024-01-30T07:10:17;7.00;;;4.07;;
32138;SDS011;18644;48.700;9.210;2024-01-30T07:12:44;5.78;;;4.07;;
32138;SDS011;18644;48.700;9.210;2024-01-30T07:15:12;5.10;;;3.72;;
32138;SDS011;18644;48.700;9.210;2024-01-30T07:17:41;6.07;;;4.20;;
32138;SDS011;18644;48.700;9.210;2024-01-30T07:20:08;6.32;;;3.75;;
32138;SDS011;18644;48.700;9.210;2024-01-30T07:22:36;4.95;;;3.47;;
32138;SDS011;18644;48.700;9.210;2024-01-30T07:25:03;7.07;;;4.15;;
32138;SDS011;18644;48.700;9.210;2024-01-30T07:27:31;6.80;;;4.43;;
32138;SDS011;18644;48.700;9.210;2024-01-30T07:29:58;7.65;;;4.63;;
32138;SDS011;18644;48.700;9.210;2024-01-30T07:32:26;6.18;;;4.28;;
32138;SDS011;18644;48.700;9.210;2024-01-30T07:34:53;9.18;;;4.70;;
32138;SDS011;18644;48.700;9.210;2024-01-30T07:37:20;6.97;;;3.95;;
32138;SDS011;18644;48.700;9.210;2024-01-30T07:39:47;5.55;;;4.05;;
32138;SDS011;18644;48.700;9.210;2024-01-30T07:42:14;6.82;;;4.25;;
32138;SDS011;18644;48.700;9.210;2024-01-30T07:44:42;6.60;;;4.47;;
32138;SDS011;18644;48.700;9.210;2024-01-30T07:47:10;9.18;;;4.72;;
32138;SDS011;18644;48.700;9.210;2024-01-30T07:49:38;6.80;;;4.95;;
32138;SDS011;18644;48.700;9.210;2024-01-30T07:52:07;10.50;;;5.75;;
32138;SDS011;18644;48.700;9.210;2024-01-30T07:54:34;10.18;;;5.85;;
32138;SDS011;18644;48.700;9.210;2024-01-30T07:57:04;12.95;;;6.45;;
32138;SDS011;18644;48.700;9.210;2024-01-30T07:59:31;10.50;;;6.32;;
32138;SDS011;18644;48.700;9.210;2024-01-30T08:01:58;9.43;;;5.72;;
32138;SDS011;18644;48.700;9.210;2024-01-30T08:04:25;10.93;;;6.20;;
32138;SDS011;18644;48.700;9.210;2024-01-30T08:06:53;22.48;;;11.60;;
32138;SDS011;18644;48.700;9.210;2024-01-30T08:09:20;28.10;;;15.10;;
32138;SDS011;18644;48.700;9.210;2024-01-30T08:11:47;34.58;;;17.95;;
32138;SDS011;18644;48.700;9.210;2024-01-30T08:14:14;27.17;;;15.20;;
32138;SDS011;18644;48.700;9.210;2024-01-30T08:16:41;22.67;;;11.73;;
32138;SDS011;18644;48.700;9.210;2024-01-30T08:19:07;23.90;;;11.70;;
32138;SDS011;18644;48.700;9.210;2024-01-30T08:21:34;19.08;;;10.50;;
32138;SDS011;18644;48.700;9.210;2024-01-30T08:24:04;26.95;;;15.60;;
32138;SDS011;18644;48.700;9.210;2024-01-30T08:26:32;24.70;;;14.80;;
32138;SDS011;18644;48.700;9.210;2024-01-30T08:29:00;29.65;;;14.27;;
32138;SDS011;18644;48.700;9.210;2024-01-30T08:31:27;20.60;;;12.68;;
32138;SDS011;18644;48.700;9.210;2024-01-30T08:33:54;17.30;;;10.70;;
32138;SDS011;18644;48.700;9.210;2024-01-30T08:36:21;17.75;;;9.82;;
32138;SDS011;18644;48.700;9.210;2024-01-30T08:38:49;15.77;;;9.35;;
32138;SDS011;18644;48.700;9.210;2024-01-30T08:41:17;13.88;;;7.90;;
32138;SDS011;18644;48.700;9.210;2024-01-30T08:43:44;11.57;;;7.63;;
32138;SDS011;18644;48.700;9.210;2024-01-30T08:46:11;12.02;;;6.70;;
32138;SDS011;18644;48.700;9.210;2024-01-30T08:48:38;13.13;;;7.45;;
32138;SDS011;18644;48.700;9.210;2024-01-30T08:51:05;11.98;;;6.32;;
32138;SDS011;18644;48.700;9.210;2024-01-30T08:53:33;10.20;;;6.45;;
32138;SDS011;18644;48.700;9.210;2024-01-30T08:56:01;10.20;;;5.82;;
32138;SDS011;18644;48.700;9.210;2024-01-30T08:58:30;9.23;;;5.80;;
32138;SDS011;18644;48.700;9.210;2024-01-30T09:00:57;9.82;;;5.90;;
32138;SDS011;18644;48.700;9.210;2024-01-30T09:03:25;8.88;;;6.28;;
32138;SDS011;18644;48.700;9.210;2024-01-30T09:05:52;10.38;;;6.28;;
32138;SDS011;18644;48.700;9.210;2024-01-30T09:08:19;8.18;;;5.60;;
32138;SDS011;18644;48.700;9.210;2024-01-30T09:10:46;10.25;;;6.05;;
32138;SDS011;18644;48.700;9.210;2024-01-30T09:13:13;11.02;;;6.35;;
32138;SDS011;18644;48.700;9.210;2024-01-30T09:15:41;11.68;;;5.53;;
32138;SDS011;18644;48.700;9.210;2024-01-30T09:18:09;18.10;;;7.88;;
32138;SDS011;18644;48.700;9.210;2024-01-30T09:20:36;11.02;;;6.20;;
32138;SDS011;18644;48.700;9.210;2024-01-30T09:23:03;9.32;;;6.03;;
32138;SDS011;18644;48.700;9.210;2024-01-30T09:25:30;9.15;;;5.93;;
32138;SDS011;18644;48.700;9.210;2024-01-30T09:27:57;9.02;;;6.00;;
32138;SDS011;18644;48.700;9.210;2024-01-30T09:30:24;9.55;;;5.15;;
32138;SDS011;18644;48.700;9.210;2024-01-30T09:32:52;8.13;;;5.70;;
32138;SDS011;18644;48.700;9.210;2024-01-30T09:35:19;11.18;;;6.20;;
32138;SDS011;18644;48.700;9.210;2024-01-30T09:37:45;9.30;;;5.70;;
32138;SDS011;18644;48.700;9.210;2024-01-30T09:40:13;9.43;;;6.13;;
32138;SDS011;18644;48.700;9.210;2024-01-30T09:42:43;8.45;;;5.45;;
32138;SDS011;18644;48.700;9.210;2024-01-30T09:45:15;9.07;;;6.43;;
32138;SDS011;18644;48.700;9.210;2024-01-30T09:47:45;10.32;;;6.85;;
32138;SDS011;18644;48.700;9.210;2024-01-30T09:50:14;10.88;;;6.15;;
32138;SDS011;18644;48.700;9.210;2024-01-30T09:52:42;9.15;;;6.18;;
32138;SDS011;18644;48.700;9.210;2024-01-30T09:55:10;16.73;;;6.85;;
32138;SDS011;18644;48.700;9.210;2024-01-30T09:57:37;12.85;;;6.57;;
32138;SDS011;18644;48.700;9.210;2024-01-30T10:00:05;11.45;;;6.50;;
32138;SDS011;18644;48.700;9.210;2024-01-30T10:02:33;8.70;;;6.13;;
32138;SDS011;18644;48.700;9.210;2024-01-30T10:05:00;8.50;;;5.65;;
32138;SDS011;18644;48.700;9.210;2024-01-30T10:07:29;10.57;;;6.78;;
32138;SDS011;18644;48.700;9.210;2024-01-30T10:09:56;10.48;;;6.45;;
32138;SDS011;18644;48.700;9.210;2024-01-30T10:12:23;13.55;;;6.53;;
32138;SDS011;18644;48.700;9.210;2024-01-30T10:14:52;11.35;;;6.65;;
32138;SDS011;18644;48.700;9.210;2024-01-30T10:17:20;8.98;;;6.22;;
32138;SDS011;18644;48.700;9.210;2024-01-30T10:19:47;8.70;;;6.10;;
32138;SDS011;18644;48.700;9.210;2024-01-30T10:22:14;10.40;;;6.90;;
32138;SDS011;18644;48.700;9.210;2024-01-30T10:24:42;9.95;;;6.72;;
32138;SDS011;18644;48.700;9.210;2024-01-30T10:27:10;9.77;;;6.65;;
32138;SDS011;18644;48.700;9.210;2024-01-30T10:29:37;12.80;;;7.82;;
32138;SDS011;18644;48.700;9.210;2024-01-30T10:32:05;9.95;;;6.53;;
32138;SDS011;18644;48.700;9.210;2024-01-30T10:34:32;10.07;;;6.97;;
32138;SDS011;18644;48.700;9.210;2024-01-30T10:37:01;8.45;;;6.05;;
32138;SDS011;18644;48.700;9.210;2024-01-30T10:39:37;9.73;;;6.07;;
32138;SDS011;18644;48.700;9.210;2024-01-30T10:42:07;8.82;;;6.20;;
32138;SDS011;18644;48.700;9.210;2024-01-30T10:44:41;7.95;;;5.82;;
32138;SDS011;18644;48.700;9.210;2024-01-30T10:47:15;9.15;;;5.90;;
32138;SDS011;18644;48.700;9.210;2024-01-30T10:49:48;9.70;;;6.00;;
32138;SDS011;18644;48.700;9.210;2024-01-30T10:52:15;9.15;;;5.68;;
32138;SDS011;18644;48.700;9.210;2024-01-30T10:54:43;12.18;;;6.70;;
32138;SDS011;18644;48.700;9.210;2024-01-30T10:57:12;9.25;;;6.00;;
32138;SDS011;18644;48.700;9.210;2024-01-30T10:59:41;11.85;;;6.68;;
32138;SDS011;18644;48.700;9.210;2024-01-30T11:02:10;17.50;;;6.63;;
32138;SDS011;18644;48.700;9.210;2024-01-30T11:04:37;18.25;;;8.20;;
32138;SDS011;18644;48.700;9.210;2024-01-30T11:07:13;13.80;;;7.00;;
32138;SDS011;18644;48.700;9.210;2024-01-30T11:09:47;11.35;;;6.38;;
32138;SDS011;18644;48.700;9.210;2024-01-30T11:12:18;9.38;;;6.35;;
32138;SDS011;18644;48.700;9.210;2024-01-30T11:14:49;18.95;;;6.25;;
32138;SDS011;18644;48.700;9.210;2024-01-30T11:17:28;11.27;;;6.68;;
32138;SDS011;18644;48.700;9.210;2024-01-30T11:19:58;9.80;;;6.22;;
32138;SDS011;18644;48.700;9.210;2024-01-30T11:22:25;9.38;;;6.25;;
32138;SDS011;18644;48.700;9.210;2024-01-30T11:24:53;9.60;;;6.60;;
32138;SDS011;18644;48.700;9.210;2024-01-30T11:27:23;9.82;;;6.00;;
32138;SDS011;18644;48.700;9.210;2024-01-30T11:29:50;10.63;;;7.20;;
32138;SDS011;18644;48.700;9.210;2024-01-30T11:32:22;10.80;;;6.15;;
32138;SDS011;18644;48.700;9.210;2024-01-30T11:34:49;9.05;;;6.40;;
32138;SDS011;18644;48.700;9.210;2024-01-30T11:37:17;9.73;;;6.03;;
32138;SDS011;18644;48.700;9.210;2024-01-30T11:39:47;7.65;;;5.85;;
32138;SDS011;18644;48.700;9.210;2024-01-30T11:42:14;8.75;;;6.10;;
32138;SDS011;18644;48.700;9.210;2024-01-30T11:44:47;9.05;;;5.78;;
32138;SDS011;18644;48.700;9.210;2024-01-30T11:47:14;9.30;;;5.90;;
32138;SDS011;18644;48.700;9.210;2024-01-30T11:49:42;9.07;;;6.32;;
32138;SDS011;18644;48.700;9.210;2024-01-30T11:52:10;11.38;;;6.07;;
32138;SDS011;18644;48.700;9.210;2024-01-30T11:54:38;14.73;;;6.50;;
32138;SDS011;18644;48.700;9.210;2024-01-30T11:57:06;12.23;;;6.13;;
32138;SDS011;18644;48.700;9.210;2024-01-30T11:59:33;8.65;;;6.15;;
32138;SDS011;18644;48.700;9.210;2024-01-30T12:02:01;11.10;;;5.88;;
32138;SDS011;18644;48.700;9.210;2024-01-30T12:04:28;13.98;;;6.43;;
32138;SDS011;18644;48.700;9.210;2024-01-30T12:06:55;17.30;;;6.78;;
32138;SDS011;18644;48.700;9.210;2024-01-30T12:09:22;11.38;;;7.25;;
32138;SDS011;18644;48.700;9.210;2024-01-30T12:11:49;12.40;;;6.97;;
32138;SDS011;18644;48.700;9.210;2024-01-30T12:14:16;16.67;;;7.75;;
32138;SDS011;18644;48.700;9.210;2024-01-30T12:16:47;11.30;;;6.53;;
32138;SDS011;18644;48.700;9.210;2024-01-30T12:19:22;9.77;;;7.10;;
32138;SDS011;18644;48.700;9.210;2024-01-30T12:21:53;11.52;;;6.78;;
32138;SDS011;18644;48.700;9.210;2024-01-30T12:24:21;14.60;;;6.38;;
32138;SDS011;18644;48.700;9.210;2024-01-30T12:26:49;10.40;;;6.65;;
32138;SDS011;18644;48.700;9.210;2024-01-30T12:29:16;12.10;;;6.07;;
32138;SDS011;18644;48.700;9.210;2024-01-30T12:31:43;12.20;;;6.65;;
32138;SDS011;18644;48.700;9.210;2024-01-30T12:34:13;8.95;;;5.82;;
32138;SDS011;18644;48.700;9.210;2024-01-30T12:36:43;16.67;;;6.57;;
32138;SDS011;18644;48.700;9.210;2024-01-30T12:39:10;19.25;;;6.93;;
32138;SDS011;18644;48.700;9.210;2024-01-30T12:41:39;9.65;;;6.07;;
32138;SDS011;18644;48.700;9.210;2024-01-30T12:44:06;11.45;;;6.25;;
32138;SDS011;18644;48.700;9.210;2024-01-30T12:46:34;9.85;;;6.68;;
32138;SDS011;18644;48.700;9.210;2024-01-30T12:49:01;8.68;;;5.72;;
32138;SDS011;18644;48.700;9.210;2024-01-30T12:51:28;10.43;;;7.38;;
32138;SDS011;18644;48.700;9.210;2024-01-30T12:53:56;13.02;;;6.53;;
32138;SDS011;18644;48.700;9.210;2024-01-30T12:56:23;12.80;;;7.20;;
32138;SDS011;18644;48.700;9.210;2024-01-30T12:58:50;8.05;;;5.65;;
32138;SDS011;18644;48.700;9.210;2024-01-30T13:01:17;7.93;;;5.72;;
32138;SDS011;18644;48.700;9.210;2024-01-30T13:03:44;10.45;;;5.95;;
32138;SDS011;18644;48.700;9.210;2024-01-30T13:06:11;9.52;;;4.97;;
32138;SDS011;18644;48.700;9.210;2024-01-30T13:08:38;10.38;;;4.78;;
32138;SDS011;18644;48.700;9.210;2024-01-30T13:11:06;12.52;;;5.68;;
32138;SDS011;18644;48.700;9.210;2024-01-30T13:13:33;13.38;;;6.93;;
32138;SDS011;18644;48.700;9.210;2024-01-30T13:16:00;11.40;;;6.63;;
32138;SDS011;18644;48.700;9.210;2024-01-30T13:18:27;14.07;;;7.50;;
32138;SDS011;18644;48.700;9.210;2024-01-30T13:20:54;9.55;;;6.60;;
32138;SDS011;18644;48.700;9.210;2024-01-30T13:23:21;10.35;;;6.57;;
32138;SDS011;18644;48.700;9.210;2024-01-30T13:25:48;9.13;;;5.68;;
32138;SDS011;18644;48.700;9.210;2024-01-30T13:28:16;9.85;;;5.68;;
32138;SDS011;18644;48.700;9.210;2024-01-30T13:30:43;6.65;;;4.28;;
32138;SDS011;18644;48.700;9.210;2024-01-30T13:33:10;3.65;;;2.55;;
32138;SDS011;18644;48.700;9.210;2024-01-30T13:35:37;3.08;;;1.83;;
32138;SDS011;18644;48.700;9.210;2024-01-30T13:38:04;2.15;;;1.75;;
32138;SDS011;18644;48.700;9.210;2024-01-30T13:40:31;3.75;;;1.83;;
32138;SDS011;18644;48.700;9.210;2024-01-30T13:42:58;3.05;;;1.60;;
32138;SDS011;18644;48.700;9.210;2024-01-30T13:45:26;2.38;;;1.60;;
32138;SDS011;18644;48.700;9.210;2024-01-30T13:47:53;2.28;;;1.63;;
32138;SDS011;18644;48.700;9.210;2024-01-30T13:50:20;5.18;;;1.70;;
32138;SDS011;18644;48.700;9.210;2024-01-30T13:52:47;4.32;;;1.35;;
32138;SDS011;18644;48.700;9.210;2024-01-30T13:55:14;2.20;;;1.42;;
32138;SDS011;18644;48.700;9.210;2024-01-30T13:57:41;3.85;;;1.83;;
32138;SDS011;18644;48.700;9.210;2024-01-30T14:00:09;2.47;;;1.48;;
32138;SDS011;18644;48.700;9.210;2024-01-30T14:05:09;2.20;;;1.67;;
32138;SDS011;18644;48.700;9.210;2024-01-30T14:07:36;2.47;;;1.33;;
32138;SDS011;18644;48.700;9.210;2024-01-30T14:10:05;3.47;;;1.60;;
32138;SDS011;18644;48.700;9.210;2024-01-30T14:12:33;2.95;;;1.40;;
32138;SDS011;18644;48.700;9.210;2024-01-30T14:15:00;4.70;;;1.70;;
32138;SDS011;18644;48.700;9.210;2024-01-30T14:17:27;7.13;;;3.47;;
32138;SDS011;18644;48.700;9.210;2024-01-30T14:19:55;7.60;;;4.20;;
32138;SDS011;18644;48.700;9.210;2024-01-30T14:22:22;14.80;;;5.65;;
32138;SDS011;18644;48.700;9.210;2024-01-30T14:24:49;10.15;;;4.90;;
32138;SDS011;18644;48.700;9.210;2024-01-30T14:27:16;11.77;;;5.55;;
32138;SDS011;18644;48.700;9.210;2024-01-30T14:29:43;5.57;;;4.68;;
32138;SDS011;18644;48.700;9.210;2024-01-30T14:32:10;9.52;;;4.38;;
32138;SDS011;18644;48.700;9.210;2024-01-30T14:34:37;4.95;;;3.78;;
32138;SDS011;18644;48.700;9.210;2024-01-30T14:37:05;20.08;;;5.43;;
32138;SDS011;18644;48.700;9.210;2024-01-30T14:39:33;10.68;;;5.15;;
32138;SDS011;18644;48.700;9.210;2024-01-30T14:42:02;11.15;;;6.05;;
32138;SDS011;18644;48.700;9.210;2024-01-30T14:44:29;13.40;;;6.60;;
32138;SDS011;18644;48.700;9.210;2024-01-30T14:46:56;10.93;;;6.68;;